sensor_id;sensor_type;location;lat;lon;timestamp;temperature;humidity
12408;DHT22;6268;48.188;17.134;2023-11-19T00:00:21;4.60;99.90
12408;DHT22;6268;48.188;17.134;2023-11-19T00:02:50;4.60;99.90
12408;DHT22;6268;48.188;17.134;2023-11-19T00:05:19;4.60;99.90
12408;DHT22;6268;48.188;17.134;2023-11-19T00:07:47;4.70;99.90
12408;DHT22;6268;48.188;17.134;2023-11-19T00:10:17;4.70;99.90
12408;DHT22;6268;48.188;17.134;2023-11-19T00:12:47;4.70;99.90
12408;DHT22;6268;48.188;17.134;2023-11-19T00:15:17;4.50;99.90
12408;DHT22;6268;48.188;17.134;2023-11-19T00:17:48;4.20;99.90
12408;DHT22;6268;48.188;17.134;2023-11-19T00:20:18;3.90;99.90
12408;DHT22;6268;48.188;17.134;2023-11-19T00:22:47;3.90;99.90
12408;DHT22;6268;48.188;17.134;2023-11-19T00:25:19;4.00;99.90
12408;DHT22;6268;48.188;17.134;2023-11-19T00:27:49;4.10;99.90
12408;DHT22;6268;48.188;17.134;2023-11-19T00:30:18;4.00;99.90
12408;DHT22;6268;48.188;17.134;2023-11-19T00:32:48;4.00;99.90
12408;DHT22;6268;48.188;17.134;2023-11-19T00:35:16;4.10;99.90
12408;DHT22;6268;48.188;17.134;2023-11-19T00:37:45;4.20;99.90
12408;DHT22;6268;48.188;17.134;2023-11-19T00:40:15;4.20;99.90
12408;DHT22;6268;48.188;17.134;2023-11-19T00:42:45;4.10;99.90
12408;DHT22;6268;48.188;17.134;2023-11-19T00:45:15;4.10;99.90
12408;DHT22;6268;48.188;17.134;2023-11-19T00:47:43;4.10;99.90
12408;DHT22;6268;48.188;17.134;2023-11-19T00:50:13;4.30;99.90
12408;DHT22;6268;48.188;17.134;2023-11-19T00:52:41;4.30;99.90
12408;DHT22;6268;48.188;17.134;2023-11-19T00:55:10;4.40;99.90
12408;DHT22;6268;48.188;17.134;2023-11-19T00:57:39;4.40;99.90
12408;DHT22;6268;48.188;17.134;2023-11-19T01:00:07;4.40;99.90
12408;DHT22;6268;48.188;17.134;2023-11-19T01:02:46;4.40;99.90
12408;DHT22;6268;48.188;17.134;2023-11-19T01:05:20;4.40;99.90
12408;DHT22;6268;48.188;17.134;2023-11-19T01:07:51;4.20;99.90
12408;DHT22;6268;48.188;17.134;2023-11-19T01:10:22;4.10;99.90
12408;DHT22;6268;48.188;17.134;2023-11-19T01:12:51;4.00;99.90
12408;DHT22;6268;48.188;17.134;2023-11-19T01:15:20;4.10;99.90
12408;DHT22;6268;48.188;17.134;2023-11-19T01:17:50;3.80;99.90
12408;DHT22;6268;48.188;17.134;2023-11-19T01:20:21;3.70;99.90
12408;DHT22;6268;48.188;17.134;2023-11-19T01:22:50;3.80;99.90
12408;DHT22;6268;48.188;17.134;2023-11-19T01:25:18;4.00;99.90
12408;DHT22;6268;48.188;17.134;2023-11-19T01:27:47;4.10;99.90
12408;DHT22;6268;48.188;17.134;2023-11-19T01:30:17;4.20;99.90
12408;DHT22;6268;48.188;17.134;2023-11-19T01:32:46;4.20;99.90
12408;DHT22;6268;48.188;17.134;2023-11-19T01:35:15;4.30;99.90
12408;DHT22;6268;48.188;17.134;2023-11-19T01:37:45;4.30;99.90
12408;DHT22;6268;48.188;17.134;2023-11-19T01:40:13;4.30;99.90
12408;DHT22;6268;48.188;17.134;2023-11-19T01:42:43;4.20;99.90
12408;DHT22;6268;48.188;17.134;2023-11-19T01:45:21;4.30;99.90
12408;DHT22;6268;48.188;17.134;2023-11-19T01:47:50;4.30;99.90
12408;DHT22;6268;48.188;17.134;2023-11-19T01:50:20;4.30;99.90
12408;DHT22;6268;48.188;17.134;2023-11-19T01:52:50;4.30;99.90
12408;DHT22;6268;48.188;17.134;2023-11-19T01:55:19;4.30;99.90
12408;DHT22;6268;48.188;17.134;2023-11-19T01:57:48;4.20;99.90
12408;DHT22;6268;48.188;17.134;2023-11-19T02:00:18;4.20;99.90
12408;DHT22;6268;48.188;17.134;2023-11-19T02:02:47;4.30;99.90
12408;DHT22;6268;48.188;17.134;2023-11-19T02:05:17;4.30;99.90
12408;DHT22;6268;48.188;17.134;2023-11-19T02:07:45;4.40;99.90
12408;DHT22;6268;48.188;17.134;2023-11-19T02:10:15;4.40;99.90
12408;DHT22;6268;48.188;17.134;2023-11-19T02:12:46;4.50;99.90
12408;DHT22;6268;48.188;17.134;2023-11-19T02:15:15;4.50;99.90
12408;DHT22;6268;48.188;17.134;2023-11-19T02:17:45;4.50;99.90
12408;DHT22;6268;48.188;17.134;2023-11-19T02:20:14;4.50;99.90
12408;DHT22;6268;48.188;17.134;2023-11-19T02:22:43;4.30;99.90
12408;DHT22;6268;48.188;17.134;2023-11-19T02:25:17;4.20;99.90
12408;DHT22;6268;48.188;17.134;2023-11-19T02:27:53;4.00;99.90
12408;DHT22;6268;48.188;17.134;2023-11-19T02:30:24;4.10;99.90
12408;DHT22;6268;48.188;17.134;2023-11-19T02:32:53;4.20;99.90
12408;DHT22;6268;48.188;17.134;2023-11-19T02:35:24;4.30;99.90
12408;DHT22;6268;48.188;17.134;2023-11-19T02:37:53;4.30;99.90
12408;DHT22;6268;48.188;17.134;2023-11-19T02:40:22;4.30;99.90
12408;DHT22;6268;48.188;17.134;2023-11-19T02:42:53;4.40;99.90
12408;DHT22;6268;48.188;17.134;2023-11-19T02:45:22;4.50;99.90
12408;DHT22;6268;48.188;17.134;2023-11-19T02:47:52;4.50;99.90
12408;DHT22;6268;48.188;17.134;2023-11-19T02:50:22;4.50;99.90
12408;DHT22;6268;48.188;17.134;2023-11-19T02:52:54;4.50;99.90
12408;DHT22;6268;48.188;17.134;2023-11-19T02:55:24;4.40;99.90
12408;DHT22;6268;48.188;17.134;2023-11-19T02:57:56;4.50;99.90
12408;DHT22;6268;48.188;17.134;2023-11-19T03:00:27;4.50;99.90
12408;DHT22;6268;48.188;17.134;2023-11-19T03:03:03;4.50;99.90
12408;DHT22;6268;48.188;17.134;2023-11-19T03:05:45;4.50;99.90
12408;DHT22;6268;48.188;17.134;2023-11-19T03:08:15;4.50;99.90
12408;DHT22;6268;48.188;17.134;2023-11-19T03:10:47;4.50;99.90
12408;DHT22;6268;48.188;17.134;2023-11-19T03:13:17;4.60;99.90
12408;DHT22;6268;48.188;17.134;2023-11-19T03:15:45;4.60;99.90
12408;DHT22;6268;48.188;17.134;2023-11-19T03:18:14;4.50;99.90
12408;DHT22;6268;48.188;17.134;2023-11-19T03:20:43;4.50;99.90
12408;DHT22;6268;48.188;17.134;2023-11-19T03:23:11;4.50;99.90
12408;DHT22;6268;48.188;17.134;2023-11-19T03:25:40;4.40;99.90
12408;DHT22;6268;48.188;17.134;2023-11-19T03:28:08;4.30;99.90
12408;DHT22;6268;48.188;17.134;2023-11-19T03:30:39;4.20;99.90
12408;DHT22;6268;48.188;17.134;2023-11-19T03:33:08;4.10;99.90
12408;DHT22;6268;48.188;17.134;2023-11-19T03:35:36;4.30;99.90
12408;DHT22;6268;48.188;17.134;2023-11-19T03:38:05;4.20;99.90
12408;DHT22;6268;48.188;17.134;2023-11-19T03:40:33;4.10;99.90
12408;DHT22;6268;48.188;17.134;2023-11-19T03:43:02;4.20;99.90
12408;DHT22;6268;48.188;17.134;2023-11-19T03:45:31;4.20;99.90
12408;DHT22;6268;48.188;17.134;2023-11-19T03:48:01;4.20;99.90
12408;DHT22;6268;48.188;17.134;2023-11-19T03:50:29;4.10;99.90
12408;DHT22;6268;48.188;17.134;2023-11-19T03:52:57;4.10;99.90
12408;DHT22;6268;48.188;17.134;2023-11-19T03:55:26;4.20;99.90
12408;DHT22;6268;48.188;17.134;2023-11-19T03:57:54;4.20;99.90
12408;DHT22;6268;48.188;17.134;2023-11-19T04:00:23;4.00;99.90
12408;DHT22;6268;48.188;17.134;2023-11-19T04:02:51;4.00;99.90
12408;DHT22;6268;48.188;17.134;2023-11-19T04:05:21;3.90;99.90
12408;DHT22;6268;48.188;17.134;2023-11-19T04:07:49;3.90;99.90
12408;DHT22;6268;48.188;17.134;2023-11-19T04:10:18;4.00;99.90
12408;DHT22;6268;48.188;17.134;2023-11-19T04:12:47;4.10;99.90
12408;DHT22;6268;48.188;17.134;2023-11-19T04:15:16;4.00;99.90
12408;DHT22;6268;48.188;17.134;2023-11-19T04:17:44;4.00;99.90
12408;DHT22;6268;48.188;17.134;2023-11-19T04:20:13;4.00;99.90
12408;DHT22;6268;48.188;17.134;2023-11-19T04:22:43;4.10;99.90
12408;DHT22;6268;48.188;17.134;2023-11-19T04:25:11;4.20;99.90
12408;DHT22;6268;48.188;17.134;2023-11-19T04:27:41;4.20;99.90
12408;DHT22;6268;48.188;17.134;2023-11-19T04:30:10;4.30;99.90
12408;DHT22;6268;48.188;17.134;2023-11-19T04:32:38;4.30;99.90
12408;DHT22;6268;48.188;17.134;2023-11-19T04:35:08;4.30;99.90
12408;DHT22;6268;48.188;17.134;2023-11-19T04:37:37;4.40;99.90
12408;DHT22;6268;48.188;17.134;2023-11-19T04:40:08;4.40;99.90
12408;DHT22;6268;48.188;17.134;2023-11-19T04:42:37;4.30;99.90
12408;DHT22;6268;48.188;17.134;2023-11-19T04:45:08;4.20;99.90
12408;DHT22;6268;48.188;17.134;2023-11-19T04:47:37;4.30;99.90
12408;DHT22;6268;48.188;17.134;2023-11-19T04:50:07;4.30;99.90
12408;DHT22;6268;48.188;17.134;2023-11-19T04:52:38;4.30;99.90
12408;DHT22;6268;48.188;17.134;2023-11-19T04:55:11;4.40;99.90
12408;DHT22;6268;48.188;17.134;2023-11-19T04:57:41;4.40;99.90
12408;DHT22;6268;48.188;17.134;2023-11-19T05:00:11;4.40;99.90
12408;DHT22;6268;48.188;17.134;2023-11-19T05:02:44;4.40;99.90
12408;DHT22;6268;48.188;17.134;2023-11-19T05:05:12;4.40;99.90
12408;DHT22;6268;48.188;17.134;2023-11-19T05:07:41;4.40;99.90
12408;DHT22;6268;48.188;17.134;2023-11-19T05:10:11;4.30;99.90
12408;DHT22;6268;48.188;17.134;2023-11-19T05:12:39;4.20;99.90
12408;DHT22;6268;48.188;17.134;2023-11-19T05:15:09;4.00;99.90
12408;DHT22;6268;48.188;17.134;2023-11-19T05:17:39;3.80;99.90
12408;DHT22;6268;48.188;17.134;2023-11-19T05:20:08;3.70;99.90
12408;DHT22;6268;48.188;17.134;2023-11-19T05:22:41;3.70;99.90
12408;DHT22;6268;48.188;17.134;2023-11-19T05:25:10;3.70;99.90
12408;DHT22;6268;48.188;17.134;2023-11-19T05:27:39;3.80;99.90
12408;DHT22;6268;48.188;17.134;2023-11-19T05:30:08;3.90;99.90
12408;DHT22;6268;48.188;17.134;2023-11-19T05:32:38;3.80;99.90
12408;DHT22;6268;48.188;17.134;2023-11-19T05:35:07;3.50;99.90
12408;DHT22;6268;48.188;17.134;2023-11-19T05:37:36;3.40;99.90
12408;DHT22;6268;48.188;17.134;2023-11-19T05:40:06;3.30;99.90
12408;DHT22;6268;48.188;17.134;2023-11-19T05:42:44;3.20;99.90
12408;DHT22;6268;48.188;17.134;2023-11-19T05:45:13;3.20;99.90
12408;DHT22;6268;48.188;17.134;2023-11-19T05:47:41;3.30;99.90
12408;DHT22;6268;48.188;17.134;2023-11-19T05:50:11;3.30;99.90
12408;DHT22;6268;48.188;17.134;2023-11-19T05:52:39;3.30;99.90
12408;DHT22;6268;48.188;17.134;2023-11-19T05:55:08;3.20;99.90
12408;DHT22;6268;48.188;17.134;2023-11-19T05:57:38;3.20;99.90
12408;DHT22;6268;48.188;17.134;2023-11-19T06:00:12;3.20;99.90
12408;DHT22;6268;48.188;17.134;2023-11-19T06:02:43;3.10;99.90
12408;DHT22;6268;48.188;17.134;2023-11-19T06:05:11;3.00;99.90
12408;DHT22;6268;48.188;17.134;2023-11-19T06:07:40;3.10;99.90
12408;DHT22;6268;48.188;17.134;2023-11-19T06:10:09;3.00;99.90
12408;DHT22;6268;48.188;17.134;2023-11-19T06:12:38;3.00;99.90
12408;DHT22;6268;48.188;17.134;2023-11-19T06:15:08;3.00;99.90
12408;DHT22;6268;48.188;17.134;2023-11-19T06:17:38;3.00;99.90
12408;DHT22;6268;48.188;17.134;2023-11-19T06:20:08;2.90;99.90
12408;DHT22;6268;48.188;17.134;2023-11-19T06:22:39;3.10;99.90
12408;DHT22;6268;48.188;17.134;2023-11-19T06:25:09;3.10;99.90
12408;DHT22;6268;48.188;17.134;2023-11-19T06:27:38;3.10;99.90
12408;DHT22;6268;48.188;17.134;2023-11-19T06:30:07;3.00;99.90
12408;DHT22;6268;48.188;17.134;2023-11-19T06:32:35;3.10;99.90
12408;DHT22;6268;48.188;17.134;2023-11-19T06:35:06;3.10;99.90
12408;DHT22;6268;48.188;17.134;2023-11-19T06:37:35;3.20;99.90
12408;DHT22;6268;48.188;17.134;2023-11-19T06:40:04;3.00;99.90
12408;DHT22;6268;48.188;17.134;2023-11-19T06:42:33;3.10;99.90
12408;DHT22;6268;48.188;17.134;2023-11-19T06:45:02;3.10;99.90
12408;DHT22;6268;48.188;17.134;2023-11-19T06:47:30;3.10;99.90
12408;DHT22;6268;48.188;17.134;2023-11-19T06:49:59;3.00;99.90
12408;DHT22;6268;48.188;17.134;2023-11-19T06:52:28;3.10;99.90
12408;DHT22;6268;48.188;17.134;2023-11-19T06:54:58;3.20;99.90
12408;DHT22;6268;48.188;17.134;2023-11-19T06:57:29;3.30;99.90
12408;DHT22;6268;48.188;17.134;2023-11-19T06:59:59;3.40;99.90
12408;DHT22;6268;48.188;17.134;2023-11-19T07:02:28;3.50;99.90
12408;DHT22;6268;48.188;17.134;2023-11-19T07:04:57;3.50;99.90
12408;DHT22;6268;48.188;17.134;2023-11-19T07:07:25;3.30;99.90
12408;DHT22;6268;48.188;17.134;2023-11-19T07:09:55;3.20;99.90
12408;DHT22;6268;48.188;17.134;2023-11-19T07:12:23;3.20;99.90
12408;DHT22;6268;48.188;17.134;2023-11-19T07:14:53;3.20;99.90
12408;DHT22;6268;48.188;17.134;2023-11-19T07:17:22;3.20;99.90
12408;DHT22;6268;48.188;17.134;2023-11-19T07:19:52;3.30;99.90
12408;DHT22;6268;48.188;17.134;2023-11-19T07:22:21;3.40;99.90
12408;DHT22;6268;48.188;17.134;2023-11-19T07:24:50;3.40;99.90
12408;DHT22;6268;48.188;17.134;2023-11-19T07:27:20;3.30;99.90
12408;DHT22;6268;48.188;17.134;2023-11-19T07:29:48;3.40;99.90
12408;DHT22;6268;48.188;17.134;2023-11-19T07:32:16;3.50;99.90
12408;DHT22;6268;48.188;17.134;2023-11-19T07:34:45;3.60;99.90
12408;DHT22;6268;48.188;17.134;2023-11-19T07:37:13;3.60;99.90
12408;DHT22;6268;48.188;17.134;2023-11-19T07:39:44;3.60;99.90
12408;DHT22;6268;48.188;17.134;2023-11-19T07:42:12;3.60;99.90
12408;DHT22;6268;48.188;17.134;2023-11-19T07:44:43;3.60;99.90
12408;DHT22;6268;48.188;17.134;2023-11-19T07:47:11;3.60;99.90
12408;DHT22;6268;48.188;17.134;2023-11-19T07:49:40;3.60;99.90
12408;DHT22;6268;48.188;17.134;2023-11-19T07:52:11;3.60;99.90
12408;DHT22;6268;48.188;17.134;2023-11-19T07:54:43;3.60;99.90
12408;DHT22;6268;48.188;17.134;2023-11-19T07:57:11;3.60;99.90
12408;DHT22;6268;48.188;17.134;2023-11-19T07:59:41;3.60;99.90
12408;DHT22;6268;48.188;17.134;2023-11-19T08:02:09;3.60;99.90
12408;DHT22;6268;48.188;17.134;2023-11-19T08:04:38;3.70;99.90
12408;DHT22;6268;48.188;17.134;2023-11-19T08:07:12;3.70;99.90
12408;DHT22;6268;48.188;17.134;2023-11-19T08:09:40;3.80;99.90
12408;DHT22;6268;48.188;17.134;2023-11-19T08:12:09;3.90;99.90
12408;DHT22;6268;48.188;17.134;2023-11-19T08:14:37;3.90;99.90
12408;DHT22;6268;48.188;17.134;2023-11-19T08:17:07;4.00;99.90
12408;DHT22;6268;48.188;17.134;2023-11-19T08:19:36;4.00;99.90
12408;DHT22;6268;48.188;17.134;2023-11-19T08:22:04;3.90;99.90
12408;DHT22;6268;48.188;17.134;2023-11-19T08:24:32;3.90;99.90
12408;DHT22;6268;48.188;17.134;2023-11-19T08:27:01;3.90;99.90
12408;DHT22;6268;48.188;17.134;2023-11-19T08:29:30;4.00;99.90
12408;DHT22;6268;48.188;17.134;2023-11-19T08:32:00;4.10;99.90
12408;DHT22;6268;48.188;17.134;2023-11-19T08:34:30;4.10;99.90
12408;DHT22;6268;48.188;17.134;2023-11-19T08:36:59;4.10;99.90
12408;DHT22;6268;48.188;17.134;2023-11-19T08:39:27;4.10;99.90
12408;DHT22;6268;48.188;17.134;2023-11-19T08:41:57;4.10;99.90
12408;DHT22;6268;48.188;17.134;2023-11-19T08:44:26;4.20;99.90
12408;DHT22;6268;48.188;17.134;2023-11-19T08:46:54;4.20;99.90
12408;DHT22;6268;48.188;17.134;2023-11-19T08:49:22;4.20;99.90
12408;DHT22;6268;48.188;17.134;2023-11-19T08:51:52;4.20;99.90
12408;DHT22;6268;48.188;17.134;2023-11-19T08:54:21;4.20;99.90
12408;DHT22;6268;48.188;17.134;2023-11-19T08:56:49;4.30;99.90
12408;DHT22;6268;48.188;17.134;2023-11-19T08:59:18;4.40;99.90
12408;DHT22;6268;48.188;17.134;2023-11-19T09:01:47;4.40;99.90
12408;DHT22;6268;48.188;17.134;2023-11-19T09:04:15;4.40;99.90
12408;DHT22;6268;48.188;17.134;2023-11-19T09:06:44;4.40;99.90
12408;DHT22;6268;48.188;17.134;2023-11-19T09:09:14;4.20;99.90
12408;DHT22;6268;48.188;17.134;2023-11-19T09:11:42;4.10;99.90
12408;DHT22;6268;48.188;17.134;2023-11-19T09:14:11;4.10;99.90
12408;DHT22;6268;48.188;17.134;2023-11-19T09:16:39;4.00;99.90
12408;DHT22;6268;48.188;17.134;2023-11-19T09:19:08;4.00;99.90
12408;DHT22;6268;48.188;17.134;2023-11-19T09:21:36;4.00;99.90
12408;DHT22;6268;48.188;17.134;2023-11-19T09:24:06;4.10;99.90
12408;DHT22;6268;48.188;17.134;2023-11-19T09:26:36;4.20;99.90
12408;DHT22;6268;48.188;17.134;2023-11-19T09:29:07;4.20;99.90
12408;DHT22;6268;48.188;17.134;2023-11-19T09:31:37;4.20;99.90
12408;DHT22;6268;48.188;17.134;2023-11-19T09:34:06;4.20;99.90
12408;DHT22;6268;48.188;17.134;2023-11-19T09:36:34;4.20;99.90
12408;DHT22;6268;48.188;17.134;2023-11-19T09:39:03;4.30;99.90
12408;DHT22;6268;48.188;17.134;2023-11-19T09:41:32;4.40;99.90
12408;DHT22;6268;48.188;17.134;2023-11-19T09:44:03;4.30;99.90
12408;DHT22;6268;48.188;17.134;2023-11-19T09:46:32;4.40;99.90
12408;DHT22;6268;48.188;17.134;2023-11-19T09:49:02;4.50;99.90
12408;DHT22;6268;48.188;17.134;2023-11-19T09:51:34;4.50;99.90
12408;DHT22;6268;48.188;17.134;2023-11-19T09:54:03;4.50;99.90
12408;DHT22;6268;48.188;17.134;2023-11-19T09:56:33;4.60;99.90
12408;DHT22;6268;48.188;17.134;2023-11-19T09:59:03;4.60;99.90
12408;DHT22;6268;48.188;17.134;2023-11-19T10:01:31;4.50;99.90
12408;DHT22;6268;48.188;17.134;2023-11-19T10:04:00;4.40;99.90
12408;DHT22;6268;48.188;17.134;2023-11-19T10:06:29;4.40;99.90
12408;DHT22;6268;48.188;17.134;2023-11-19T10:08:58;4.50;99.90
12408;DHT22;6268;48.188;17.134;2023-11-19T10:11:26;4.50;99.90
12408;DHT22;6268;48.188;17.134;2023-11-19T10:13:55;4.60;99.90
12408;DHT22;6268;48.188;17.134;2023-11-19T10:16:30;4.60;99.90
12408;DHT22;6268;48.188;17.134;2023-11-19T10:18:59;4.60;99.90
12408;DHT22;6268;48.188;17.134;2023-11-19T10:21:29;4.60;99.90
12408;DHT22;6268;48.188;17.134;2023-11-19T10:23:59;4.60;99.90
12408;DHT22;6268;48.188;17.134;2023-11-19T10:26:28;4.50;99.90
12408;DHT22;6268;48.188;17.134;2023-11-19T10:28:56;4.60;99.90
12408;DHT22;6268;48.188;17.134;2023-11-19T10:31:25;4.60;99.90
12408;DHT22;6268;48.188;17.134;2023-11-19T10:33:55;4.50;99.90
12408;DHT22;6268;48.188;17.134;2023-11-19T10:36:37;4.40;99.90
12408;DHT22;6268;48.188;17.134;2023-11-19T10:39:08;4.20;99.90
12408;DHT22;6268;48.188;17.134;2023-11-19T10:41:37;4.30;99.90
12408;DHT22;6268;48.188;17.134;2023-11-19T10:44:05;4.20;99.90
12408;DHT22;6268;48.188;17.134;2023-11-19T10:46:37;4.30;99.90
12408;DHT22;6268;48.188;17.134;2023-11-19T10:49:09;4.30;99.90
12408;DHT22;6268;48.188;17.134;2023-11-19T10:51:42;4.30;99.90
12408;DHT22;6268;48.188;17.134;2023-11-19T10:54:15;4.40;99.90
12408;DHT22;6268;48.188;17.134;2023-11-19T10:56:47;4.50;99.90
12408;DHT22;6268;48.188;17.134;2023-11-19T10:59:20;4.60;99.90
12408;DHT22;6268;48.188;17.134;2023-11-19T11:01:53;4.60;99.90
12408;DHT22;6268;48.188;17.134;2023-11-19T11:04:24;4.50;99.90
12408;DHT22;6268;48.188;17.134;2023-11-19T11:06:55;4.50;99.90
12408;DHT22;6268;48.188;17.134;2023-11-19T11:09:26;4.50;99.90
12408;DHT22;6268;48.188;17.134;2023-11-19T11:11:56;4.60;99.90
12408;DHT22;6268;48.188;17.134;2023-11-19T11:14:25;4.70;99.90
12408;DHT22;6268;48.188;17.134;2023-11-19T11:16:56;4.70;99.90
12408;DHT22;6268;48.188;17.134;2023-11-19T11:19:27;4.70;99.90
12408;DHT22;6268;48.188;17.134;2023-11-19T11:21:56;4.80;99.90
12408;DHT22;6268;48.188;17.134;2023-11-19T11:24:35;4.80;99.90
12408;DHT22;6268;48.188;17.134;2023-11-19T11:27:29;4.80;99.90
12408;DHT22;6268;48.188;17.134;2023-11-19T11:30:13;4.80;99.90
12408;DHT22;6268;48.188;17.134;2023-11-19T11:32:57;4.70;99.90
12408;DHT22;6268;48.188;17.134;2023-11-19T11:35:40;4.70;99.90
12408;DHT22;6268;48.188;17.134;2023-11-19T11:38:14;4.70;99.90
12408;DHT22;6268;48.188;17.134;2023-11-19T11:41:16;4.80;99.90
12408;DHT22;6268;48.188;17.134;2023-11-19T11:43:47;4.80;99.90
12408;DHT22;6268;48.188;17.134;2023-11-19T11:46:54;4.90;99.90
12408;DHT22;6268;48.188;17.134;2023-11-19T11:49:26;4.90;99.90
12408;DHT22;6268;48.188;17.134;2023-11-19T11:52:04;4.90;99.90
12408;DHT22;6268;48.188;17.134;2023-11-19T11:54:34;4.80;99.90
12408;DHT22;6268;48.188;17.134;2023-11-19T11:57:05;4.70;99.90
12408;DHT22;6268;48.188;17.134;2023-11-19T11:59:46;4.90;99.90
12408;DHT22;6268;48.188;17.134;2023-11-19T12:02:16;5.00;99.90
12408;DHT22;6268;48.188;17.134;2023-11-19T12:04:49;5.10;99.90
12408;DHT22;6268;48.188;17.134;2023-11-19T12:07:21;5.10;99.90
12408;DHT22;6268;48.188;17.134;2023-11-19T12:09:52;5.00;99.90
12408;DHT22;6268;48.188;17.134;2023-11-19T12:12:25;5.10;99.90
12408;DHT22;6268;48.188;17.134;2023-11-19T12:15:05;5.00;99.90
12408;DHT22;6268;48.188;17.134;2023-11-19T12:17:41;5.10;99.90
12408;DHT22;6268;48.188;17.134;2023-11-19T12:20:12;5.20;99.90
12408;DHT22;6268;48.188;17.134;2023-11-19T12:22:43;5.30;99.90
12408;DHT22;6268;48.188;17.134;2023-11-19T12:25:13;5.30;99.90
12408;DHT22;6268;48.188;17.134;2023-11-19T12:27:44;5.30;99.90
12408;DHT22;6268;48.188;17.134;2023-11-19T12:30:17;5.40;99.90
12408;DHT22;6268;48.188;17.134;2023-11-19T12:32:45;5.40;99.90
12408;DHT22;6268;48.188;17.134;2023-11-19T12:35:14;5.30;99.90
12408;DHT22;6268;48.188;17.134;2023-11-19T12:37:45;5.40;99.90
12408;DHT22;6268;48.188;17.134;2023-11-19T12:40:18;5.50;99.90
12408;DHT22;6268;48.188;17.134;2023-11-19T12:42:48;5.50;99.90
12408;DHT22;6268;48.188;17.134;2023-11-19T12:45:17;5.60;99.90
12408;DHT22;6268;48.188;17.134;2023-11-19T12:47:48;5.70;99.90
12408;DHT22;6268;48.188;17.134;2023-11-19T12:50:17;5.70;99.90
12408;DHT22;6268;48.188;17.134;2023-11-19T12:52:56;5.60;99.90
12408;DHT22;6268;48.188;17.134;2023-11-19T12:55:26;5.70;99.90
12408;DHT22;6268;48.188;17.134;2023-11-19T12:57:56;5.70;99.90
12408;DHT22;6268;48.188;17.134;2023-11-19T13:00:27;5.70;99.90
12408;DHT22;6268;48.188;17.134;2023-11-19T13:02:57;5.60;99.90
12408;DHT22;6268;48.188;17.134;2023-11-19T13:05:27;5.60;99.90
12408;DHT22;6268;48.188;17.134;2023-11-19T13:08:03;5.60;99.90
12408;DHT22;6268;48.188;17.134;2023-11-19T13:10:32;5.60;99.90
12408;DHT22;6268;48.188;17.134;2023-11-19T13:13:03;5.50;99.90
12408;DHT22;6268;48.188;17.134;2023-11-19T13:15:33;5.40;99.90
12408;DHT22;6268;48.188;17.134;2023-11-19T13:18:02;5.40;99.90
12408;DHT22;6268;48.188;17.134;2023-11-19T13:20:30;5.40;99.90
12408;DHT22;6268;48.188;17.134;2023-11-19T13:23:02;5.30;99.90
12408;DHT22;6268;48.188;17.134;2023-11-19T13:25:31;5.30;99.90
12408;DHT22;6268;48.188;17.134;2023-11-19T13:27:59;5.30;99.90
12408;DHT22;6268;48.188;17.134;2023-11-19T13:30:29;5.40;99.90
12408;DHT22;6268;48.188;17.134;2023-11-19T13:32:57;5.30;99.90
12408;DHT22;6268;48.188;17.134;2023-11-19T13:35:26;5.30;99.90
12408;DHT22;6268;48.188;17.134;2023-11-19T13:37:55;5.30;99.90
12408;DHT22;6268;48.188;17.134;2023-11-19T13:40:24;5.30;99.90
12408;DHT22;6268;48.188;17.134;2023-11-19T13:42:53;5.40;99.90
12408;DHT22;6268;48.188;17.134;2023-11-19T13:45:22;5.40;99.90
12408;DHT22;6268;48.188;17.134;2023-11-19T13:47:50;5.30;99.90
12408;DHT22;6268;48.188;17.134;2023-11-19T13:50:19;5.30;99.90
12408;DHT22;6268;48.188;17.134;2023-11-19T13:52:47;5.20;99.90
12408;DHT22;6268;48.188;17.134;2023-11-19T13:55:16;5.20;99.90
12408;DHT22;6268;48.188;17.134;2023-11-19T13:57:46;5.10;99.90
12408;DHT22;6268;48.188;17.134;2023-11-19T14:00:16;5.00;99.90
12408;DHT22;6268;48.188;17.134;2023-11-19T14:02:46;5.10;99.90
12408;DHT22;6268;48.188;17.134;2023-11-19T14:05:16;5.20;99.90
12408;DHT22;6268;48.188;17.134;2023-11-19T14:08:04;5.10;99.90
12408;DHT22;6268;48.188;17.134;2023-11-19T14:10:51;5.10;99.90
12408;DHT22;6268;48.188;17.134;2023-11-19T14:13:24;5.10;99.90
12408;DHT22;6268;48.188;17.134;2023-11-19T14:15:52;5.10;99.90
12408;DHT22;6268;48.188;17.134;2023-11-19T14:18:21;5.10;99.90
12408;DHT22;6268;48.188;17.134;2023-11-19T14:20:50;5.30;99.90
12408;DHT22;6268;48.188;17.134;2023-11-19T14:23:18;5.40;99.90
12408;DHT22;6268;48.188;17.134;2023-11-19T14:25:46;5.40;99.90
12408;DHT22;6268;48.188;17.134;2023-11-19T14:28:16;5.40;99.90
12408;DHT22;6268;48.188;17.134;2023-11-19T14:30:46;5.50;99.90
12408;DHT22;6268;48.188;17.134;2023-11-19T14:33:20;5.40;99.90
12408;DHT22;6268;48.188;17.134;2023-11-19T14:35:49;5.40;99.90
12408;DHT22;6268;48.188;17.134;2023-11-19T14:38:17;5.50;99.90
12408;DHT22;6268;48.188;17.134;2023-11-19T14:40:46;5.40;99.90
12408;DHT22;6268;48.188;17.134;2023-11-19T14:43:15;5.30;99.90
12408;DHT22;6268;48.188;17.134;2023-11-19T14:45:43;5.30;99.90
12408;DHT22;6268;48.188;17.134;2023-11-19T14:48:18;5.20;99.90
12408;DHT22;6268;48.188;17.134;2023-11-19T14:50:46;5.20;99.90
12408;DHT22;6268;48.188;17.134;2023-11-19T14:53:14;5.30;99.90
12408;DHT22;6268;48.188;17.134;2023-11-19T14:55:43;5.30;99.90
12408;DHT22;6268;48.188;17.134;2023-11-19T14:58:12;5.30;99.90
12408;DHT22;6268;48.188;17.134;2023-11-19T15:00:43;5.30;99.90
12408;DHT22;6268;48.188;17.134;2023-11-19T15:03:13;5.20;99.90
12408;DHT22;6268;48.188;17.134;2023-11-19T15:05:45;5.20;99.90
12408;DHT22;6268;48.188;17.134;2023-11-19T15:08:13;5.20;99.90
12408;DHT22;6268;48.188;17.134;2023-11-19T15:10:43;5.30;99.90
12408;DHT22;6268;48.188;17.134;2023-11-19T15:13:12;5.20;99.90
12408;DHT22;6268;48.188;17.134;2023-11-19T15:15:40;5.20;99.90
12408;DHT22;6268;48.188;17.134;2023-11-19T15:18:09;5.20;99.90
12408;DHT22;6268;48.188;17.134;2023-11-19T15:20:37;5.20;99.90
12408;DHT22;6268;48.188;17.134;2023-11-19T15:23:07;5.30;99.90
12408;DHT22;6268;48.188;17.134;2023-11-19T15:25:37;5.20;99.90
12408;DHT22;6268;48.188;17.134;2023-11-19T15:28:05;5.10;99.90
12408;DHT22;6268;48.188;17.134;2023-11-19T15:30:34;5.10;99.90
12408;DHT22;6268;48.188;17.134;2023-11-19T15:33:03;5.10;99.90
12408;DHT22;6268;48.188;17.134;2023-11-19T15:35:31;5.20;99.90
12408;DHT22;6268;48.188;17.134;2023-11-19T15:37:59;5.10;99.90
12408;DHT22;6268;48.188;17.134;2023-11-19T15:40:29;5.10;99.90
12408;DHT22;6268;48.188;17.134;2023-11-19T15:42:57;5.10;99.90
12408;DHT22;6268;48.188;17.134;2023-11-19T15:45:26;5.10;99.90
12408;DHT22;6268;48.188;17.134;2023-11-19T15:47:54;5.10;99.90
12408;DHT22;6268;48.188;17.134;2023-11-19T15:50:23;4.90;99.90
12408;DHT22;6268;48.188;17.134;2023-11-19T15:52:51;4.90;99.90
12408;DHT22;6268;48.188;17.134;2023-11-19T15:55:20;4.90;99.90
12408;DHT22;6268;48.188;17.134;2023-11-19T15:57:50;5.00;99.90
12408;DHT22;6268;48.188;17.134;2023-11-19T16:00:19;5.00;99.90
12408;DHT22;6268;48.188;17.134;2023-11-19T16:02:48;5.00;99.90